Time;durP1;ratioP1;P1;durP2;ratioP2;P2;SDS_P1;SDS_P2;PMS_P1;PMS_P2;Temp;Humidity;BMP_temperature;BMP_pressure;BME280_temperature;BME280_humidity;BME280_pressure;Samples;Min_cycle;Max_cycle;Signal;HPM_P1;HPM_P2
2022/04/28 00:04:33;;;;;;;15.37;5.40;;;12.00;56.00;;;;;;5008305;22;20777;-96
2022/04/28 00:10:46;;;;;;;20.10;7.20;;;11.90;55.70;;;;;;4984736;28;20316;-96
2022/04/28 00:16:32;;;;;;;17.07;6.23;;;11.90;56.00;;;;;;5010805;22;20313;-96
2022/04/28 00:19:00;;;;;;;10.70;5.80;;;11.90;55.90;;;;;;5008169;28;20638;-96
2022/04/28 00:21:46;;;;;;;13.90;6.30;;;11.90;56.10;;;;;;5014143;28;20242;-96
2022/04/28 00:30:19;;;;;;;15.77;6.60;;;11.80;56.30;;;;;;5012475;28;20260;-96
2022/04/28 00:32:48;;;;;;;15.23;7.40;;;11.80;56.20;;;;;;5004143;28;20227;-96
2022/04/28 00:35:20;;;;;;;13.17;6.73;;;11.80;56.40;;;;;;5013954;28;20765;-96
2022/04/28 00:37:47;;;;;;;11.77;5.77;;;11.80;56.50;;;;;;5016458;28;20648;-95
2022/04/28 00:40:18;;;;;;;13.67;6.67;;;11.80;56.40;;;;;;5015577;28;20209;-96
2022/04/28 00:45:55;;;;;;;16.57;6.87;;;11.80;57.10;;;;;;5096508;22;20241;-96
2022/04/28 00:51:13;;;;;;;16.67;6.70;;;11.80;56.90;;;;;;5034762;28;20682;-96
2022/04/28 00:53:46;;;;;;;14.67;6.60;;;11.80;56.70;;;;;;5024002;28;20231;-96
2022/04/28 00:56:58;;;;;;;18.73;8.53;;;11.70;56.70;;;;;;5033350;28;20220;-96
2022/04/28 00:59:29;;;;;;;15.70;6.83;;;11.70;57.10;;;;;;5028164;28;20646;-96
2022/04/28 01:01:57;;;;;;;14.40;6.73;;;11.70;56.50;;;;;;5021621;28;20210;-96
2022/04/28 01:04:30;;;;;;;17.87;7.63;;;11.80;56.80;;;;;;5030567;28;20858;-96
2022/04/28 01:07:00;;;;;;;14.73;6.90;;;11.70;57.20;;;;;;5036581;28;20204;-96
2022/04/28 01:09:36;;;;;;;16.97;8.00;;;11.80;57.20;;;;;;5027889;28;20638;-96
2022/04/28 01:12:07;;;;;;;15.83;7.23;;;11.70;57.30;;;;;;5030824;28;20284;-96
2022/04/28 01:14:36;;;;;;;18.13;7.53;;;11.80;57.30;;;;;;5033476;28;20224;-96
2022/04/28 01:17:05;;;;;;;18.70;8.30;;;11.70;57.30;;;;;;5043497;28;20181;-96
2022/04/28 01:20:02;;;;;;;22.10;9.43;;;11.80;57.30;;;;;;5051882;28;20187;-96
2022/04/28 01:22:46;;;;;;;18.50;8.03;;;11.70;57.60;;;;;;5039959;28;20201;-96
2022/04/28 01:28:36;;;;;;;15.60;7.23;;;11.70;57.60;;;;;;5035344;28;20322;-96
2022/04/28 01:31:05;;;;;;;14.37;8.07;;;11.70;57.20;;;;;;5031070;28;20300;-96
2022/04/28 01:33:33;;;;;;;14.97;7.97;;;11.70;57.40;;;;;;5035773;28;20203;-96
2022/04/28 01:36:01;;;;;;;13.73;8.20;;;11.70;57.60;;;;;;5036279;28;20205;-95
2022/04/28 01:38:32;;;;;;;17.17;7.80;;;11.70;57.60;;;;;;5035329;28;20201;-96
2022/04/28 01:41:00;;;;;;;14.03;7.97;;;11.60;57.80;;;;;;5032630;28;20227;-96
2022/04/28 01:43:48;;;;;;;;;;;;;;;;;;;;;
2022/04/28 01:46:17;;;;;;;17.30;8.70;;;11.60;57.70;;;;;;5052797;28;20812;-95
2022/04/28 01:48:45;;;;;;;14.63;7.70;;;11.60;57.90;;;;;;5022742;28;20261;-95
2022/04/28 01:57:02;;;;;;;20.53;9.07;;;11.50;58.30;;;;;;5035666;28;20241;-95
2022/04/28 01:59:35;;;;;;;9.73;6.23;;;11.50;58.70;;;;;;5034663;28;20210;-96
2022/04/28 02:02:08;;;;;;;12.33;7.73;;;11.50;58.70;;;;;;5034985;28;20676;-95
2022/04/28 02:04:39;;;;;;;14.77;7.53;;;11.50;58.70;;;;;;5031296;28;20228;-93
2022/04/28 02:07:08;;;;;;;11.33;7.33;;;11.40;58.60;;;;;;5034038;28;20653;-95
2022/04/28 02:09:38;;;;;;;16.97;7.97;;;11.40;58.70;;;;;;5034216;28;20292;-95
2022/04/28 02:12:05;;;;;;;13.37;7.40;;;11.40;58.80;;;;;;5023589;22;20234;-95
2022/04/28 02:14:38;;;;;;;13.80;8.20;;;11.40;58.70;;;;;;4995217;28;20198;-95
2022/04/28 02:17:18;;;;;;;14.47;7.70;;;11.40;59.20;;;;;;4992764;28;20824;-95
2022/04/28 02:19:45;;;;;;;16.80;7.93;;;11.40;59.40;;;;;;4980766;28;20213;-94
2022/04/28 02:22:18;;;;;;;12.17;7.80;;;11.40;58.90;;;;;;4991320;28;20206;-95
2022/04/28 02:24:50;;;;;;;11.43;7.30;;;11.40;59.40;;;;;;4993655;28;20210;-95
2022/04/28 02:27:19;;;;;;;17.17;8.93;;;11.40;59.40;;;;;;4989794;28;20617;-95
2022/04/28 02:29:47;;;;;;;24.23;10.23;;;11.30;59.40;;;;;;4993017;28;20203;-94
2022/04/28 02:32:14;;;;;;;16.47;7.87;;;11.30;59.40;;;;;;4983483;28;20258;-95
2022/04/28 02:34:43;;;;;;;26.33;10.33;;;11.30;59.40;;;;;;4973096;28;20218;-95
2022/04/28 02:37:11;;;;;;;15.90;9.30;;;11.30;59.40;;;;;;4973282;28;20212;-95
2022/04/28 02:39:38;;;;;;;22.17;10.03;;;11.30;59.60;;;;;;4972038;28;20868;-96
2022/04/28 02:42:17;;;;;;;12.13;7.80;;;11.30;59.50;;;;;;4975217;28;20206;-94
2022/04/28 02:44:45;;;;;;;22.27;9.43;;;11.20;60.00;;;;;;4972857;28;20206;-95
2022/04/28 02:47:17;;;;;;;10.87;7.03;;;11.20;59.60;;;;;;4958947;28;20274;-93
2022/04/28 02:49:45;;;;;;;15.87;8.20;;;11.20;59.90;;;;;;4973986;28;20254;-95
2022/04/28 02:52:17;;;;;;;15.40;8.53;;;11.20;59.80;;;;;;4974213;28;20234;-95
2022/04/28 02:54:44;;;;;;;13.27;7.97;;;11.20;59.80;;;;;;4970818;28;20230;-95
2022/04/28 02:57:14;;;;;;;17.47;9.03;;;11.20;59.80;;;;;;4976097;28;20195;-96
2022/04/28 02:59:44;;;;;;;21.87;9.20;;;11.20;60.00;;;;;;4973424;28;20202;-96
2022/04/28 03:02:11;;;;;;;19.10;9.33;;;11.20;59.90;;;;;;4971296;28;20208;-96
2022/04/28 03:04:40;;;;;;;19.57;8.47;;;11.10;59.80;;;;;;4954585;28;20212;-95
2022/04/28 03:12:38;;;;;;;20.57;9.47;;;11.10;59.80;;;;;;4957890;28;20282;-95
2022/04/28 03:15:07;;;;;;;20.20;8.90;;;11.10;60.00;;;;;;4971413;28;20856;-95
2022/04/28 03:17:37;;;;;;;18.43;8.77;;;11.10;60.00;;;;;;4972185;28;20210;-94
2022/04/28 03:20:08;;;;;;;18.33;8.60;;;11.10;60.00;;;;;;4973230;28;20277;-96
2022/04/28 03:22:36;;;;;;;24.57;10.00;;;11.10;60.00;;;;;;4974126;28;20210;-95
2022/04/28 03:25:06;;;;;;;11.73;7.23;;;11.10;59.80;;;;;;4975113;28;20211;-96
2022/04/28 03:27:35;;;;;;;18.47;9.77;;;11.10;59.90;;;;;;4980143;28;20214;-96
2022/04/28 03:30:10;;;;;;;17.03;8.80;;;11.10;60.00;;;;;;4983048;28;20599;-95
2022/04/28 03:32:37;;;;;;;13.70;8.87;;;11.00;60.30;;;;;;4980903;28;20230;-95
2022/04/28 03:35:22;;;;;;;16.40;9.27;;;11.10;60.10;;;;;;4976015;28;20199;-95
2022/04/28 03:37:49;;;;;;;19.73;9.30;;;11.00;60.70;;;;;;4974734;28;20207;-94
2022/04/28 03:40:18;;;;;;;19.53;9.70;;;11.00;60.10;;;;;;4974668;28;20214;-93
2022/04/28 03:42:46;;;;;;;21.70;10.13;;;11.00;60.20;;;;;;4964940;28;20203;-95
2022/04/28 03:45:16;;;;;;;16.60;9.10;;;11.00;60.40;;;;;;4975764;28;20210;-93
2022/04/28 03:47:44;;;;;;;18.13;9.87;;;11.00;60.50;;;;;;4977604;28;20211;-93
2022/04/28 03:50:11;;;;;;;23.70;11.17;;;11.00;60.50;;;;;;4976750;28;20596;-94
2022/04/28 03:52:51;;;;;;;18.90;9.67;;;11.00;60.50;;;;;;4978393;28;20226;-94
2022/04/28 03:55:23;;;;;;;23.50;10.30;;;10.90;60.90;;;;;;4977416;28;20210;-93
2022/04/28 03:58:02;;;;;;;19.83;10.10;;;10.90;60.70;;;;;;4978489;28;20217;-94
2022/04/28 04:00:31;;;;;;;19.17;9.77;;;10.90;60.90;;;;;;4976263;28;20230;-95
2022/04/28 04:03:01;;;;;;;18.37;10.30;;;10.90;60.60;;;;;;4973722;28;20199;-94
2022/04/28 04:05:29;;;;;;;16.70;9.33;;;10.90;60.50;;;;;;4975140;28;20215;-94
2022/04/28 04:07:57;;;;;;;17.10;9.90;;;10.90;60.60;;;;;;4971729;28;20200;-95
2022/04/28 04:10:24;;;;;;;16.30;9.67;;;10.90;60.50;;;;;;4963819;28;20659;-94
2022/04/28 04:12:54;;;;;;;16.60;9.53;;;10.80;60.60;;;;;;4975645;28;20210;-95
2022/04/28 04:15:23;;;;;;;16.83;9.40;;;10.80;60.60;;;;;;4975236;28;20695;-93
2022/04/28 04:17:57;;;;;;;21.40;10.40;;;10.80;60.80;;;;;;4972513;28;20238;-95
2022/04/28 04:20:27;;;;;;;23.20;10.97;;;10.80;61.20;;;;;;4957256;28;20203;-94
2022/04/28 04:22:55;;;;;;;22.53;10.17;;;10.80;61.00;;;;;;4970184;28;20734;-94
2022/04/28 04:25:23;;;;;;;20.57;10.77;;;10.80;60.80;;;;;;4967166;28;20203;-95
2022/04/28 04:27:52;;;;;;;20.53;10.20;;;10.80;60.80;;;;;;4974583;28;20211;-94
2022/04/28 04:33:06;;;;;;;16.80;9.40;;;10.80;60.90;;;;;;4975123;28;20230;-94
2022/04/28 04:35:40;;;;;;;21.57;10.47;;;10.80;61.10;;;;;;4967508;28;20210;-95
2022/04/28 04:38:08;;;;;;;15.53;9.27;;;10.80;61.50;;;;;;4975233;28;20233;-95
2022/04/28 04:40:36;;;;;;;18.77;10.27;;;10.70;60.80;;;;;;4974479;28;20246;-95
2022/04/28 04:43:09;;;;;;;18.80;10.27;;;10.70;61.00;;;;;;4975841;28;20233;-95
2022/04/28 04:45:36;;;;;;;20.37;10.00;;;10.70;61.20;;;;;;4973537;28;20656;-94
2022/04/28 04:48:05;;;;;;;21.93;10.87;;;10.70;61.00;;;;;;4974743;28;20678;-95
2022/04/28 04:50:34;;;;;;;18.07;9.73;;;10.70;61.30;;;;;;4975384;28;20298;-93
2022/04/28 04:53:03;;;;;;;15.63;9.63;;;10.70;61.20;;;;;;4974997;28;20222;-94
2022/04/28 04:55:33;;;;;;;31.10;11.93;;;10.70;61.40;;;;;;4978341;28;20214;-95
2022/04/28 04:58:02;;;;;;;21.67;9.87;;;10.70;61.40;;;;;;4993408;28;20227;-94
2022/04/28 05:00:40;;;;;;;;;;;;;;;;;;;;;
2022/04/28 05:03:09;;;;;;;20.23;10.03;;;10.60;62.20;;;;;;4976695;28;20203;-96
2022/04/28 05:05:36;;;;;;;19.77;9.93;;;10.70;61.80;;;;;;4976440;28;20199;-94
2022/04/28 05:08:04;;;;;;;22.03;10.33;;;10.70;61.60;;;;;;4964410;28;20208;-94
2022/04/28 05:10:38;;;;;;;22.67;10.23;;;10.60;61.80;;;;;;4971542;28;20207;-96
2022/04/28 05:13:05;;;;;;;20.47;9.50;;;10.60;62.40;;;;;;4972455;28;21096;-95
2022/04/28 05:15:32;;;;;;;18.87;10.07;;;10.70;62.10;;;;;;4964670;28;20205;-95
2022/04/28 05:18:03;;;;;;;22.70;11.17;;;10.70;62.20;;;;;;4972735;28;20206;-96
2022/04/28 05:20:55;;;;;;;23.70;11.87;;;10.70;62.50;;;;;;4971446;28;20211;-95
2022/04/28 05:23:22;;;;;;;33.20;12.67;;;10.70;63.30;;;;;;4968507;28;20183;-96
2022/04/28 05:25:49;;;;;;;27.93;10.87;;;10.70;62.50;;;;;;4987699;28;20222;-94
2022/04/28 05:28:19;;;;;;;21.87;10.27;;;10.70;62.70;;;;;;4993570;28;20218;-94
2022/04/28 05:33:32;;;;;;;16.37;8.67;;;10.70;63.10;;;;;;4982072;28;20639;-94
2022/04/28 05:36:16;;;;;;;;;;;;;;;;;;;;;
2022/04/28 05:38:44;;;;;;;18.50;8.57;;;10.80;63.40;;;;;;4997287;28;20285;-93
2022/04/28 05:41:11;;;;;;;18.17;8.67;;;10.80;63.40;;;;;;4987994;28;20250;-94
2022/04/28 05:46:25;;;;;;;16.53;8.30;;;10.80;63.40;;;;;;4972372;28;20747;-94
2022/04/28 05:48:53;;;;;;;21.53;8.73;;;10.80;63.40;;;;;;4973783;28;20252;-95
2022/04/28 05:51:21;;;;;;;14.30;8.63;;;10.90;63.70;;;;;;4972509;28;20232;-94
2022/04/28 05:53:50;;;;;;;18.93;8.90;;;10.90;63.80;;;;;;4973569;28;20299;-94
2022/04/28 05:56:17;;;;;;;16.37;8.40;;;11.00;64.10;;;;;;4975254;28;20236;-93
2022/04/28 05:58:46;;;;;;;15.37;7.67;;;11.00;63.70;;;;;;4974227;28;20203;-94
2022/04/28 06:01:18;;;;;;;22.43;9.77;;;11.00;64.10;;;;;;4972541;28;20239;-91
2022/04/28 06:03:48;;;;;;;15.57;7.53;;;11.10;64.20;;;;;;4973030;28;20240;-93
2022/04/28 06:06:39;;;;;;;22.33;8.43;;;11.10;64.10;;;;;;4965159;28;20652;-94
2022/04/28 06:09:08;;;;;;;16.23;8.17;;;11.10;64.70;;;;;;4961625;28;20621;-94
2022/04/28 06:11:35;;;;;;;14.27;7.57;;;11.20;64.40;;;;;;4974345;28;20252;-95
2022/04/28 06:14:03;;;;;;;16.73;8.50;;;11.20;63.90;;;;;;4973554;28;20299;-96
2022/04/28 06:16:37;;;;;;;15.97;7.23;;;11.30;64.30;;;;;;4974153;28;20643;-93
2022/04/28 06:19:05;;;;;;;16.37;7.50;;;11.30;64.30;;;;;;4964819;28;20657;-94
2022/04/28 06:21:34;;;;;;;14.10;8.00;;;11.40;64.30;;;;;;4973088;28;20809;-93
2022/04/28 06:24:01;;;;;;;19.93;8.63;;;11.40;64.50;;;;;;4967433;28;20215;-96
2022/04/28 06:26:32;;;;;;;15.80;7.57;;;11.50;64.50;;;;;;4974030;28;20451;-96
2022/04/28 06:29:02;;;;;;;18.20;7.87;;;11.50;64.30;;;;;;4974377;28;20200;-95
2022/04/28 06:31:32;;;;;;;9.83;6.80;;;11.60;64.20;;;;;;4974278;28;20238;-95
2022/04/28 06:34:00;;;;;;;8.73;6.00;;;11.60;64.20;;;;;;4962333;28;20223;-94
2022/04/28 06:36:30;;;;;;;22.93;9.53;;;11.70;64.60;;;;;;4962664;28;20199;-94
2022/04/28 06:39:19;;;;;;;20.73;8.17;;;11.80;64.60;;;;;;4971706;28;20207;-90
2022/04/28 06:41:47;;;;;;;17.37;8.10;;;11.80;64.30;;;;;;4965822;28;20676;-94
2022/04/28 06:44:14;;;;;;;19.47;8.03;;;11.90;64.20;;;;;;4960218;28;20212;-92
2022/04/28 06:46:41;;;;;;;17.57;7.53;;;11.90;63.80;;;;;;4966602;28;20240;-91
2022/04/28 06:49:10;;;;;;;16.67;7.93;;;12.00;63.70;;;;;;4965791;28;20251;-94
2022/04/28 06:51:37;;;;;;;15.33;7.97;;;12.10;63.70;;;;;;4968479;28;20251;-94
2022/04/28 06:57:17;;;;;;;13.90;7.17;;;12.20;63.90;;;;;;4911550;28;20346;-94
2022/04/28 06:59:45;;;;;;;14.27;8.13;;;12.30;63.20;;;;;;4967655;28;20286;-93
2022/04/28 07:02:14;;;;;;;19.23;8.53;;;12.30;63.10;;;;;;4965890;28;20298;-90
2022/04/28 07:04:41;;;;;;;9.67;6.60;;;12.40;63.20;;;;;;4968306;28;20207;-94
2022/04/28 07:07:09;;;;;;;18.13;8.63;;;12.50;63.00;;;;;;4972722;28;20613;-95
2022/04/28 07:09:38;;;;;;;12.93;6.93;;;12.50;63.10;;;;;;4955033;28;20205;-94
2022/04/28 07:12:05;;;;;;;9.80;6.67;;;12.60;63.10;;;;;;4959061;28;20265;-95
2022/04/28 07:14:34;;;;;;;19.27;8.47;;;12.70;63.00;;;;;;4970152;28;20209;-94
2022/04/28 07:17:01;;;;;;;13.30;6.77;;;12.80;63.00;;;;;;4971787;28;20237;-93
2022/04/28 07:19:32;;;;;;;17.70;8.13;;;12.90;62.90;;;;;;4972018;28;20294;-94
2022/04/28 07:22:02;;;;;;;16.93;8.17;;;12.90;62.70;;;;;;4966952;28;20209;-94
2022/04/28 07:24:29;;;;;;;17.27;7.20;;;13.00;62.40;;;;;;4962919;28;20429;-96
2022/04/28 07:27:14;;;;;;;18.07;7.37;;;13.10;62.30;;;;;;4953275;28;20210;-96
2022/04/28 07:33:04;;;;;;;13.83;6.63;;;13.30;62.80;;;;;;4963030;22;20248;-94
2022/04/28 07:35:34;;;;;;;16.13;7.80;;;13.40;61.60;;;;;;4932736;29;20210;-95
2022/04/28 07:38:01;;;;;;;14.27;7.27;;;13.50;61.10;;;;;;4948553;28;20214;-95
2022/04/28 07:40:55;;;;;;;;;;;;;;;;;;;;;
2022/04/28 07:43:38;;;;;;;18.90;7.83;;;13.70;60.80;;;;;;4996451;28;20194;-96
2022/04/28 07:46:06;;;;;;;10.03;5.93;;;13.80;60.40;;;;;;4979381;28;20210;-96
2022/04/28 07:48:33;;;;;;;17.73;7.23;;;13.90;60.10;;;;;;4986323;28;20234;-95
2022/04/28 07:51:04;;;;;;;23.33;9.00;;;14.00;60.00;;;;;;4989654;28;20281;-96
2022/04/28 07:53:32;;;;;;;35.87;12.33;;;14.10;59.90;;;;;;4986655;28;20669;-96
2022/04/28 07:56:18;;;;;;;18.67;8.57;;;14.20;59.70;;;;;;4987857;28;20211;-96
2022/04/28 07:58:47;;;;;;;19.87;8.17;;;14.20;59.70;;;;;;4987447;28;20213;-93
2022/04/28 08:01:38;;;;;;;20.40;9.23;;;14.30;59.30;;;;;;4990877;28;20212;-96
2022/04/28 08:04:09;;;;;;;12.57;7.07;;;14.40;59.10;;;;;;4993017;28;20202;-96
2022/04/28 08:06:37;;;;;;;24.80;9.10;;;14.50;59.10;;;;;;4986789;28;20678;-96
2022/04/28 08:09:08;;;;;;;20.87;8.40;;;14.60;59.30;;;;;;4981455;28;20207;-96
2022/04/28 08:11:36;;;;;;;18.50;8.57;;;14.70;59.10;;;;;;4984633;28;20802;-93
2022/04/28 08:14:05;;;;;;;19.27;7.63;;;14.70;59.00;;;;;;4987209;28;20207;-95
2022/04/28 08:23:18;;;;;;;17.27;9.10;;;15.10;57.80;;;;;;4973381;28;20205;-96
2022/04/28 08:25:52;;;;;;;15.97;8.47;;;15.20;57.80;;;;;;4985661;28;20292;-96
2022/04/28 08:28:28;;;;;;;14.33;7.83;;;15.30;57.40;;;;;;4988034;28;20256;-95
2022/04/28 08:30:57;;;;;;;18.00;8.63;;;15.40;56.90;;;;;;4987548;28;20225;-95
2022/04/28 08:36:16;;;;;;;12.37;7.20;;;15.50;56.20;;;;;;5088893;22;20234;-87
2022/04/28 08:38:44;;;;;;;10.87;7.63;;;15.60;56.40;;;;;;5020583;28;20221;-93
2022/04/28 08:41:17;;;;;;;13.83;7.73;;;15.70;55.80;;;;;;5016311;28;20289;-91
2022/04/28 08:43:56;;;;;;;13.83;8.10;;;15.70;55.30;;;;;;5011005;28;20587;-90
2022/04/28 08:49:23;;;;;;;17.07;8.47;;;15.90;55.40;;;;;;4988805;28;20226;-93
2022/04/28 08:51:56;;;;;;;13.30;7.77;;;16.00;55.50;;;;;;4983830;28;20228;-93
2022/04/28 08:54:26;;;;;;;18.03;7.97;;;16.10;55.60;;;;;;4988481;28;20312;-93
2022/04/28 08:57:02;;;;;;;20.00;9.57;;;16.20;55.50;;;;;;4994065;28;20198;-92
2022/04/28 08:59:31;;;;;;;21.13;9.30;;;16.30;55.60;;;;;;4989963;28;20215;-92
2022/04/28 09:05:10;;;;;;;13.43;7.03;;;16.60;55.40;;;;;;4978109;22;20256;-93
2022/04/28 09:07:40;;;;;;;14.73;7.23;;;16.80;55.30;;;;;;4987546;28;20296;-92
2022/04/28 09:10:29;;;;;;;11.77;7.47;;;17.00;55.00;;;;;;4991407;28;20205;-92
2022/04/28 09:16:09;;;;;;;16.43;7.80;;;17.40;53.50;;;;;;4949573;28;20289;-93
2022/04/28 09:18:41;;;;;;;11.70;7.43;;;17.60;53.20;;;;;;4987983;28;20241;-92
2022/04/28 09:21:14;;;;;;;21.00;8.87;;;17.80;53.40;;;;;;4981989;28;20226;-93
2022/04/28 09:23:43;;;;;;;12.73;7.30;;;18.00;52.90;;;;;;4987205;28;20217;-96
2022/04/28 09:26:12;;;;;;;13.10;7.57;;;18.10;52.80;;;;;;4991534;28;20206;-96
2022/04/28 09:28:41;;;;;;;12.93;7.43;;;18.30;52.80;;;;;;4992572;28;20277;-96
2022/04/28 09:31:13;;;;;;;18.60;8.47;;;18.40;52.40;;;;;;4986480;28;20258;-95
2022/04/28 09:33:41;;;;;;;11.73;7.00;;;18.60;52.70;;;;;;4986123;28;20253;-93
2022/04/28 09:36:09;;;;;;;10.83;7.50;;;18.70;52.60;;;;;;4986121;28;20202;-93
2022/04/28 09:38:43;;;;;;;17.10;8.03;;;18.80;51.80;;;;;;4982948;28;20718;-96
2022/04/28 09:44:06;;;;;;;13.63;7.33;;;19.10;50.80;;;;;;4996726;28;20221;-90
2022/04/28 09:46:46;;;;;;;27.10;12.77;;;19.20;51.20;;;;;;5002339;22;20639;-94
2022/04/28 09:49:18;;;;;;;17.10;8.37;;;19.30;50.40;;;;;;4993573;28;20218;-93
2022/04/28 09:51:49;;;;;;;12.50;7.83;;;19.40;51.10;;;;;;4984885;28;20329;-91
2022/04/28 09:54:19;;;;;;;14.80;6.93;;;19.50;50.00;;;;;;4985123;28;20678;-93
2022/04/28 09:57:00;;;;;;;12.77;7.20;;;19.60;50.60;;;;;;5012575;22;20233;-93
2022/04/28 09:59:28;;;;;;;15.17;8.37;;;19.70;50.10;;;;;;5005576;28;20248;-95
2022/04/28 10:01:58;;;;;;;14.17;8.27;;;19.80;49.80;;;;;;5009911;28;20205;-94
2022/04/28 10:07:43;;;;;;;9.47;6.73;;;20.00;48.30;;;;;;4931222;29;20707;-94
2022/04/28 10:10:24;;;;;;;12.40;7.03;;;20.10;49.00;;;;;;5007555;28;20271;-93
2022/04/28 10:12:51;;;;;;;19.40;7.87;;;20.20;48.60;;;;;;4993927;28;20226;-91
2022/04/28 10:15:20;;;;;;;17.63;8.93;;;20.40;49.60;;;;;;5009169;28;20709;-94
2022/04/28 10:18:13;;;;;;;18.90;8.47;;;20.40;48.20;;;;;;5012139;28;20265;-96
2022/04/28 10:20:42;;;;;;;14.07;8.17;;;20.50;48.30;;;;;;5014515;28;20777;-95
2022/04/28 10:32:24;;;;;;;10.10;6.63;;;20.90;47.60;;;;;;4995106;28;20980;-94
2022/04/28 10:35:18;;;;;;;14.90;8.53;;;21.00;47.80;;;;;;4993373;28;20637;-96
2022/04/28 10:37:45;;;;;;;12.67;7.70;;;21.00;47.00;;;;;;4995363;28;20305;-96
2022/04/28 10:40:16;;;;;;;19.57;9.10;;;21.10;47.60;;;;;;4993512;28;20570;-92
2022/04/28 10:43:01;;;;;;;20.80;11.03;;;21.20;47.10;;;;;;4988151;28;20217;-93
2022/04/28 10:45:29;;;;;;;14.77;7.67;;;21.30;46.10;;;;;;4978452;28;20216;-95
2022/04/28 10:51:14;;;;;;;15.37;8.43;;;21.40;45.20;;;;;;4990648;28;20206;-93
2022/04/28 10:54:05;;;;;;;13.73;8.63;;;21.40;46.40;;;;;;4977699;28;20250;-94
2022/04/28 10:56:55;;;;;;;15.10;7.93;;;21.50;46.00;;;;;;4988903;28;20295;-89
2022/04/28 10:59:39;;;;;;;12.60;8.47;;;21.60;46.00;;;;;;4990327;28;20299;-91
2022/04/28 11:02:51;;;;;;;17.53;9.70;;;21.70;45.90;;;;;;4987862;28;20673;-93
2022/04/28 11:05:44;;;;;;;13.27;7.20;;;21.80;45.90;;;;;;4978665;28;20256;-91
2022/04/28 11:08:27;;;;;;;15.87;8.87;;;21.90;46.00;;;;;;4991499;28;20304;-91
2022/04/28 11:11:13;;;;;;;10.30;7.27;;;22.10;45.50;;;;;;4979263;28;20206;-93
2022/04/28 11:13:53;;;;;;;12.23;8.77;;;22.20;45.70;;;;;;4989086;28;20696;-96
2022/04/28 11:16:20;;;;;;;11.83;8.90;;;22.30;45.40;;;;;;4992960;28;20287;-91
2022/04/28 11:18:48;;;;;;;17.07;9.97;;;22.40;44.90;;;;;;4990619;28;20205;-96
2022/04/28 11:21:30;;;;;;;10.47;7.87;;;22.50;45.20;;;;;;4989220;28;20241;-96
2022/04/28 11:23:57;;;;;;;11.30;8.33;;;22.60;44.50;;;;;;4981106;28;20214;-96
2022/04/28 11:26:30;;;;;;;12.10;7.83;;;22.60;45.70;;;;;;4999409;22;20229;-95
2022/04/28 11:29:06;;;;;;;15.27;9.80;;;22.70;44.80;;;;;;4991480;28;20615;-93
2022/04/28 11:31:33;;;;;;;12.07;8.77;;;22.80;44.00;;;;;;4976209;28;20198;-95
2022/04/28 11:34:11;;;;;;;10.77;7.53;;;22.90;45.00;;;;;;4972620;28;20230;-94
2022/04/28 11:36:41;;;;;;;17.90;10.00;;;23.00;44.70;;;;;;4983617;28;20213;-92
2022/04/28 11:39:10;;;;;;;11.30;7.97;;;23.10;45.30;;;;;;4970183;28;20211;-93
2022/04/28 11:41:39;;;;;;;14.70;8.77;;;23.10;44.80;;;;;;4971800;28;20305;-92
2022/04/28 11:44:10;;;;;;;11.53;7.67;;;23.20;44.60;;;;;;4972467;28;20234;-95
2022/04/28 11:49:40;;;;;;;15.57;7.87;;;23.40;44.00;;;;;;4975237;28;20202;-92
2022/04/28 11:52:18;;;;;;;13.30;8.07;;;23.50;44.90;;;;;;4975659;28;20744;-91
2022/04/28 11:54:49;;;;;;;15.90;8.70;;;23.60;43.80;;;;;;4991738;28;20236;-94
2022/04/28 11:57:18;;;;;;;11.17;7.83;;;23.70;44.10;;;;;;4976830;28;20229;-92
2022/04/28 11:59:50;;;;;;;17.03;9.67;;;23.80;44.00;;;;;;4990695;28;20288;-93
2022/04/28 12:02:28;;;;;;;14.83;9.23;;;24.00;43.00;;;;;;4972837;28;20258;-93
2022/04/28 12:04:57;;;;;;;15.13;9.27;;;24.00;42.70;;;;;;4983830;28;20576;-92
2022/04/28 12:15:57;;;;;;;11.20;7.57;;;24.40;42.00;;;;;;4981533;28;20215;-92
2022/04/28 12:21:18;;;;;;;13.57;9.37;;;24.40;42.30;;;;;;4977493;28;20292;-89
2022/04/28 12:23:51;;;;;;;11.43;7.77;;;24.40;41.60;;;;;;4989320;28;20285;-94
2022/04/28 12:26:21;;;;;;;12.73;9.00;;;24.40;42.20;;;;;;4960433;28;20243;-95
2022/04/28 12:29:07;;;;;;;13.67;8.20;;;24.40;40.60;;;;;;4972223;28;20217;-93
2022/04/28 12:31:36;;;;;;;13.30;8.87;;;24.40;41.30;;;;;;4973763;28;20195;-95
2022/04/28 12:34:11;;;;;;;11.77;8.23;;;24.40;41.60;;;;;;4997505;28;20229;-93
2022/04/28 12:36:46;;;;;;;10.27;7.63;;;24.40;41.60;;;;;;4985770;28;20206;-93
2022/04/28 12:39:14;;;;;;;12.73;7.90;;;24.40;41.60;;;;;;5005037;28;20212;-95
2022/04/28 12:41:48;;;;;;;12.30;8.07;;;24.40;42.30;;;;;;4991480;28;20656;-96
2022/04/28 12:44:16;;;;;;;14.33;7.37;;;24.50;41.70;;;;;;5008398;28;20189;-96
2022/04/28 12:46:55;;;;;;;10.63;7.13;;;24.50;41.90;;;;;;5005661;28;20203;-96
2022/04/28 12:54:45;;;;;;;16.50;10.20;;;24.70;41.20;;;;;;4992129;28;20925;-95
2022/04/28 12:57:12;;;;;;;12.90;7.77;;;24.70;41.20;;;;;;4997141;28;20240;-94
2022/04/28 12:59:46;;;;;;;13.67;8.40;;;24.80;42.00;;;;;;4982055;28;20214;-91
2022/04/28 13:02:30;;;;;;;11.40;5.97;;;24.80;42.10;;;;;;4977515;28;20261;-92
2022/04/28 13:05:13;;;;;;;14.40;7.93;;;24.90;42.30;;;;;;4973610;28;20239;-96
2022/04/28 13:07:43;;;;;;;14.33;7.77;;;24.90;42.00;;;;;;4980764;28;20214;-96
2022/04/28 13:10:12;;;;;;;9.70;6.40;;;24.90;41.90;;;;;;4971686;28;20655;-96
2022/04/28 13:13:03;;;;;;;10.80;6.60;;;24.90;42.40;;;;;;4981640;28;20233;-95
2022/04/28 13:15:30;;;;;;;13.77;7.07;;;24.80;42.00;;;;;;4985193;28;20245;-92
2022/04/28 13:18:15;;;;;;;16.80;7.70;;;24.80;42.50;;;;;;4975021;28;20263;-92
2022/04/28 13:21:00;;;;;;;13.43;6.20;;;24.70;42.50;;;;;;4976675;28;20210;-91
2022/04/28 13:23:27;;;;;;;11.80;7.70;;;24.60;42.30;;;;;;4973239;28;20230;-94
2022/04/28 13:25:54;;;;;;;14.13;7.93;;;24.50;42.40;;;;;;4980361;28;20678;-90
2022/04/28 13:28:21;;;;;;;13.50;7.50;;;24.50;42.40;;;;;;4985235;28;20286;-90
2022/04/28 13:30:49;;;;;;;11.40;7.20;;;24.40;42.50;;;;;;4993669;22;20237;-92
2022/04/28 13:33:23;;;;;;;15.17;7.53;;;24.40;42.30;;;;;;5101884;22;20256;-91
2022/04/28 13:35:50;;;;;;;10.03;6.70;;;24.30;42.70;;;;;;4976796;28;20290;-92
2022/04/28 13:38:36;;;;;;;9.13;6.57;;;24.30;42.40;;;;;;4979741;28;20285;-92
2022/04/28 13:41:10;;;;;;;11.63;6.87;;;24.20;42.20;;;;;;4995271;28;20244;-93
2022/04/28 13:43:38;;;;;;;11.93;6.40;;;24.10;42.00;;;;;;4995906;28;20284;-93
2022/04/28 13:46:23;;;;;;;11.80;7.50;;;24.00;42.40;;;;;;4995971;28;20198;-95
2022/04/28 13:48:52;;;;;;;17.57;8.27;;;23.80;41.80;;;;;;4994713;28;20205;-95
2022/04/28 13:51:21;;;;;;;15.13;7.17;;;23.60;42.40;;;;;;4978672;28;20459;-94
2022/04/28 13:53:48;;;;;;;15.60;7.67;;;23.40;42.50;;;;;;4985500;28;20265;-93
2022/04/28 13:56:15;;;;;;;11.23;7.77;;;23.30;42.70;;;;;;4989564;28;20948;-91
2022/04/28 13:58:44;;;;;;;13.13;7.50;;;23.10;42.80;;;;;;4991820;28;20249;-90
2022/04/28 14:01:43;;;;;;;13.97;7.80;;;23.00;43.00;;;;;;4991873;28;20194;-92
2022/04/28 14:04:13;;;;;;;15.80;7.90;;;22.80;43.10;;;;;;4988035;28;20741;-90
2022/04/28 14:10:00;;;;;;;13.60;7.23;;;22.60;43.60;;;;;;4994433;22;20305;-96
2022/04/28 14:12:28;;;;;;;12.63;7.63;;;22.40;43.70;;;;;;5018258;22;20296;-96
2022/04/28 14:14:58;;;;;;;16.43;8.80;;;22.30;43.90;;;;;;5024667;28;20229;-92
2022/04/28 14:17:48;;;;;;;14.90;8.43;;;22.20;43.90;;;;;;5020759;28;20197;-93
2022/04/28 14:20:23;;;;;;;16.93;7.87;;;22.10;43.80;;;;;;5014964;28;20248;-94
2022/04/28 14:25:58;;;;;;;14.07;8.27;;;21.90;44.50;;;;;;4991318;28;20207;-95
2022/04/28 14:31:21;;;;;;;16.40;8.13;;;21.80;45.00;;;;;;4960447;28;20225;-96
2022/04/28 14:33:48;;;;;;;12.33;7.63;;;21.80;45.10;;;;;;5003746;28;20287;-93
2022/04/28 14:36:28;;;;;;;20.10;9.63;;;21.90;45.20;;;;;;5012203;28;20248;-95
2022/04/28 14:38:55;;;;;;;12.23;7.67;;;22.00;45.30;;;;;;5006492;28;20292;-92
2022/04/28 14:41:25;;;;;;;13.67;8.40;;;22.00;45.00;;;;;;5009859;28;20665;-95
2022/04/28 14:43:52;;;;;;;11.93;7.47;;;22.00;45.00;;;;;;4994189;28;20215;-93
2022/04/28 14:46:19;;;;;;;18.70;8.73;;;22.10;44.90;;;;;;5006043;28;20217;-94
2022/04/28 14:54:41;;;;;;;20.73;10.57;;;22.00;44.50;;;;;;4994471;28;20241;-92
2022/04/28 14:57:11;;;;;;;12.67;8.93;;;21.90;44.40;;;;;;4997028;28;20814;-95
2022/04/28 14:59:38;;;;;;;16.00;8.87;;;21.80;44.30;;;;;;5010158;28;20256;-94
2022/04/28 15:02:06;;;;;;;18.87;9.97;;;21.70;44.50;;;;;;5008683;28;20213;-94
2022/04/28 15:04:33;;;;;;;13.93;9.03;;;21.60;44.60;;;;;;4999949;28;20546;-91
2022/04/28 15:07:02;;;;;;;13.90;9.10;;;21.50;44.90;;;;;;5003418;28;20564;-95
2022/04/28 15:09:29;;;;;;;14.40;8.43;;;21.40;44.90;;;;;;5001542;28;20608;-95